Time;durP1;ratioP1;P1;durP2;ratioP2;P2;SDS_P1;SDS_P2;PMS_P1;PMS_P2;Temp;Humidity;BMP_temperature;BMP_pressure;BME280_temperature;BME280_humidity;BME280_pressure;Samples;Min_cycle;Max_cycle;Signal;HPM_P1;HPM_P2
2021/12/24 00:01:59;;;;;;;62.72;25.55;;;7.50;99.90;;;;;;5003679;28;20279;-82
2021/12/24 00:04:25;;;;;;;67.78;25.52;;;7.50;99.90;;;;;;5005071;28;20038;-82
2021/12/24 00:06:52;;;;;;;65.88;25.48;;;7.50;99.90;;;;;;4999040;28;20072;-82
2021/12/24 00:09:22;;;;;;;58.63;24.25;;;7.50;99.90;;;;;;5001773;28;20037;-82
2021/12/24 00:11:50;;;;;;;71.30;25.33;;;7.50;99.90;;;;;;5017912;28;20120;-82
2021/12/24 00:14:16;;;;;;;62.60;25.30;;;7.50;99.90;;;;;;5019748;28;20113;-82
2021/12/24 00:16:47;;;;;;;63.55;24.88;;;7.50;99.90;;;;;;5036026;28;20034;-82
2021/12/24 00:19:26;;;;;;;64.40;24.92;;;7.50;99.90;;;;;;5019043;28;20092;-82
2021/12/24 00:22:30;;;;;;;57.00;24.08;;;7.50;99.90;;;;;;5018773;28;20327;-82
2021/12/24 00:35:52;;;;;;;56.70;23.30;;;7.70;99.90;;;;;;5019693;28;20075;-82
2021/12/24 00:38:18;;;;;;;60.15;23.80;;;7.70;99.90;;;;;;5031739;28;20371;-82
2021/12/24 00:40:46;;;;;;;59.58;23.15;;;7.70;99.90;;;;;;4999011;28;20453;-82
2021/12/24 00:43:15;;;;;;;65.22;23.52;;;7.80;99.90;;;;;;5003133;28;20064;-82
2021/12/24 00:45:44;;;;;;;62.50;23.50;;;7.80;99.90;;;;;;5019422;28;20030;-82
2021/12/24 00:48:16;;;;;;;52.85;22.98;;;7.80;99.90;;;;;;5001535;28;20037;-82
2021/12/24 00:56:13;;;;;;;59.28;23.38;;;7.90;99.90;;;;;;4995343;28;20120;-82
2021/12/24 00:58:40;;;;;;;75.30;24.55;;;7.90;99.90;;;;;;5016774;28;20056;-82
2021/12/24 01:01:10;;;;;;;50.33;20.67;;;7.90;99.90;;;;;;5001154;28;20046;-82
2021/12/24 01:03:36;;;;;;;54.63;22.33;;;8.00;99.90;;;;;;5015615;28;20038;-82
2021/12/24 01:06:03;;;;;;;59.25;22.35;;;8.00;99.90;;;;;;5017827;28;20163;-82
2021/12/24 01:08:29;;;;;;;51.40;20.92;;;8.10;99.90;;;;;;4994180;28;20041;-82
2021/12/24 01:10:59;;;;;;;47.85;20.83;;;8.00;99.90;;;;;;4998289;28;20049;-82
2021/12/24 01:13:26;;;;;;;50.97;20.13;;;8.00;99.90;;;;;;5015271;28;20033;-82
2021/12/24 01:16:00;;;;;;;37.40;18.15;;;8.10;99.90;;;;;;5000495;28;20512;-82
2021/12/24 01:21:13;;;;;;;47.08;19.08;;;8.10;99.90;;;;;;5034102;28;20561;-82
2021/12/24 01:23:50;;;;;;;45.22;18.73;;;8.20;99.90;;;;;;5012403;28;20110;-82
2021/12/24 01:26:42;;;;;;;45.63;18.88;;;8.20;99.90;;;;;;5017309;28;20041;-82
2021/12/24 01:42:46;;;;;;;34.13;15.18;;;8.40;99.90;;;;;;5031560;28;20053;-82
2021/12/24 01:45:18;;;;;;;33.17;15.05;;;8.40;99.90;;;;;;4998498;28;20045;-82
2021/12/24 01:47:44;;;;;;;31.05;14.07;;;8.50;99.90;;;;;;5000690;28;20056;-82
2021/12/24 01:50:10;;;;;;;26.77;13.18;;;8.50;99.90;;;;;;5015015;28;20045;-82
2021/12/24 01:52:38;;;;;;;36.75;14.40;;;8.50;99.90;;;;;;5011931;28;20109;-82
2021/12/24 01:55:04;;;;;;;27.13;12.68;;;8.50;99.90;;;;;;5015101;28;20069;-82
2021/12/24 01:57:32;;;;;;;27.23;12.93;;;8.60;99.90;;;;;;4998885;28;20038;-82
2021/12/24 02:00:03;;;;;;;20.90;10.75;;;8.60;99.90;;;;;;4999178;28;20060;-82
2021/12/24 02:02:30;;;;;;;22.63;12.25;;;8.70;99.90;;;;;;4996239;28;20041;-82
2021/12/24 02:04:56;;;;;;;27.48;12.18;;;8.70;99.90;;;;;;5004998;28;20061;-82
2021/12/24 02:07:22;;;;;;;26.98;12.52;;;8.70;99.90;;;;;;5011437;28;20070;-82
2021/12/24 02:09:48;;;;;;;21.45;10.93;;;8.70;99.90;;;;;;4998533;28;20033;-82
2021/12/24 02:12:15;;;;;;;27.77;11.60;;;8.70;99.90;;;;;;4997801;28;20034;-82
2021/12/24 02:14:48;;;;;;;22.52;11.60;;;8.80;99.90;;;;;;5000010;28;20473;-82
2021/12/24 02:28:36;;;;;;;23.13;10.77;;;9.00;99.90;;;;;;5015974;28;20037;-82
2021/12/24 02:31:03;;;;;;;21.05;10.57;;;9.00;99.90;;;;;;5032137;28;20052;-81
2021/12/24 02:33:29;;;;;;;23.67;11.15;;;9.00;99.90;;;;;;5000278;28;20044;-82
2021/12/24 02:35:55;;;;;;;22.05;10.63;;;9.00;99.90;;;;;;5000459;28;20041;-82
2021/12/24 02:38:21;;;;;;;21.55;10.50;;;9.00;99.90;;;;;;5012581;28;20452;-82
2021/12/24 02:40:47;;;;;;;19.10;9.30;;;9.00;99.90;;;;;;4998448;28;20030;-82
2021/12/24 02:43:19;;;;;;;18.98;9.80;;;9.00;99.90;;;;;;4999380;28;20160;-82
2021/12/24 02:45:47;;;;;;;21.60;9.55;;;9.10;99.90;;;;;;4999721;28;20041;-82
2021/12/24 02:49:06;;;;;;;20.02;9.50;;;9.10;99.90;;;;;;5000509;28;20472;-82
2021/12/24 02:53:59;;;;;;;19.33;9.30;;;9.10;99.90;;;;;;5004453;28;20536;-82
2021/12/24 02:56:39;;;;;;;18.05;8.40;;;9.10;99.90;;;;;;4998459;28;20046;-82
2021/12/24 02:59:10;;;;;;;17.75;8.52;;;9.10;99.90;;;;;;5013481;28;20125;-82
2021/12/24 03:01:40;;;;;;;15.02;8.05;;;9.10;99.90;;;;;;5001290;28;20268;-82
2021/12/24 03:04:07;;;;;;;13.27;8.10;;;9.10;99.90;;;;;;5001732;28;20095;-82
2021/12/24 03:06:37;;;;;;;15.75;8.02;;;9.20;99.90;;;;;;5018619;28;20041;-82
2021/12/24 03:09:12;;;;;;;16.15;8.50;;;9.10;99.90;;;;;;4999990;28;20056;-82
2021/12/24 03:11:38;;;;;;;17.23;8.50;;;9.20;99.90;;;;;;5002630;28;20084;-82
2021/12/24 03:14:06;;;;;;;12.65;7.20;;;9.30;99.90;;;;;;5023544;28;20049;-82
2021/12/24 03:16:32;;;;;;;15.60;8.05;;;9.30;99.90;;;;;;5019997;28;20087;-82
2021/12/24 03:18:58;;;;;;;17.98;8.43;;;9.30;99.90;;;;;;5019803;28;20041;-82
2021/12/24 03:21:37;;;;;;;15.25;8.00;;;9.30;99.90;;;;;;5003262;28;20503;-82
2021/12/24 03:26:49;;;;;;;22.02;10.07;;;9.40;99.90;;;;;;5017890;28;20056;-82
2021/12/24 03:29:17;;;;;;;22.27;9.90;;;9.40;99.90;;;;;;5019656;28;20428;-82
2021/12/24 03:31:47;;;;;;;21.08;10.10;;;9.50;99.90;;;;;;5003985;28;20095;-82
2021/12/24 03:34:16;;;;;;;27.42;11.00;;;9.50;99.90;;;;;;5021412;28;20065;-82
2021/12/24 03:36:42;;;;;;;30.17;10.90;;;9.50;99.90;;;;;;5019198;28;20042;-82
2021/12/24 03:39:11;;;;;;;43.33;14.10;;;9.60;99.90;;;;;;5000831;28;20068;-83
2021/12/24 03:41:40;;;;;;;44.83;15.25;;;9.60;99.90;;;;;;5017793;28;20172;-82
2021/12/24 03:44:08;;;;;;;47.83;14.75;;;9.60;99.90;;;;;;5019254;28;20459;-82
2021/12/24 03:46:50;;;;;;;42.85;14.45;;;9.60;99.90;;;;;;4998821;28;20393;-82
2021/12/24 03:49:32;;;;;;;49.70;15.88;;;9.60;99.90;;;;;;5016636;28;20132;-82
2021/12/24 03:52:35;;;;;;;42.33;16.27;;;9.60;99.90;;;;;;5018009;28;20127;-82
2021/12/24 03:54:56;;;;;;;53.38;16.98;;;9.70;99.90;;;;;;5023927;28;20124;-82
2021/12/24 03:57:25;;;;;;;47.47;18.00;;;9.70;99.90;;;;;;5003494;28;20030;-82
2021/12/24 03:59:51;;;;;;;55.58;17.63;;;9.80;99.90;;;;;;5009482;28;20058;-82
2021/12/24 04:02:17;;;;;;;57.33;18.25;;;9.80;99.90;;;;;;5002065;28;20041;-82
2021/12/24 04:04:42;;;;;;;52.45;17.75;;;9.80;99.90;;;;;;5001989;28;20050;-82
2021/12/24 04:07:08;;;;;;;64.45;19.33;;;9.80;99.90;;;;;;5002103;28;20469;-82
2021/12/24 04:09:36;;;;;;;58.58;17.52;;;9.80;99.90;;;;;;5002355;28;20037;-82
2021/12/24 04:12:03;;;;;;;47.95;15.93;;;9.90;99.90;;;;;;5002369;28;20029;-82
2021/12/24 04:14:28;;;;;;;56.50;17.77;;;9.90;99.90;;;;;;5003194;28;20153;-82
2021/12/24 04:16:54;;;;;;;32.80;14.65;;;9.90;99.90;;;;;;5002435;28;20520;-83
2021/12/24 04:24:50;;;;;;;50.88;16.33;;;9.90;99.90;;;;;;5003612;28;20026;-82
2021/12/24 04:24:56;;;;;;;43.42;15.88;;;10.00;99.90;;;;;;5019210;28;20567;-83
2021/12/24 04:27:25;;;;;;;43.45;14.55;;;10.00;99.90;;;;;;5019390;28;20073;-82
2021/12/24 04:29:58;;;;;;;48.83;17.38;;;10.00;99.90;;;;;;5001560;28;20079;-82
2021/12/24 04:32:34;;;;;;;42.85;14.80;;;10.00;99.90;;;;;;5017766;28;20041;-82
2021/12/24 04:35:15;;;;;;;45.72;18.38;;;10.00;99.90;;;;;;5001232;28;20072;-83
2021/12/24 05:03:01;;;;;;;50.63;21.75;;;10.20;99.90;;;;;;5031702;28;20045;-82
2021/12/24 05:05:01;;;;;;;37.22;16.55;;;10.20;99.90;;;;;;5020124;28;20120;-82
2021/12/24 05:09:52;;;;;;;38.00;17.10;;;10.20;99.90;;;;;;5016333;28;20505;-82
2021/12/24 05:12:21;;;;;;;34.17;15.23;;;10.20;99.90;;;;;;4997905;28;20037;-82
2021/12/24 05:14:46;;;;;;;34.60;16.98;;;10.20;99.90;;;;;;5000856;28;20040;-81
2021/12/24 05:17:32;;;;;;;35.15;16.40;;;10.20;99.90;;;;;;4999067;28;20346;-82
2021/12/24 05:22:45;;;;;;;36.47;17.90;;;10.10;99.90;;;;;;5009868;28;20080;-82
2021/12/24 05:25:10;;;;;;;34.58;17.08;;;10.20;99.90;;;;;;4995674;28;20464;-82
2021/12/24 05:27:36;;;;;;;43.67;19.77;;;10.20;99.90;;;;;;5001268;28;20091;-82
2021/12/24 05:30:04;;;;;;;38.78;18.33;;;10.20;99.90;;;;;;5029278;28;20520;-82
2021/12/24 05:32:30;;;;;;;45.72;22.02;;;10.20;99.90;;;;;;5009151;28;20056;-82
2021/12/24 05:34:56;;;;;;;42.22;19.00;;;10.20;99.90;;;;;;4998404;28;20231;-82
2021/12/24 05:37:22;;;;;;;40.25;19.63;;;10.20;99.90;;;;;;5007718;28;20049;-82
2021/12/24 05:39:47;;;;;;;46.10;21.60;;;10.10;99.90;;;;;;5011703;28;20052;-82
2021/12/24 05:42:13;;;;;;;41.67;20.13;;;10.20;99.90;;;;;;5011707;28;20037;-82
2021/12/24 05:44:39;;;;;;;47.42;22.15;;;10.10;99.90;;;;;;5014248;28;20048;-82
2021/12/24 05:47:05;;;;;;;47.05;19.05;;;10.20;99.90;;;;;;5014224;28;20041;-82
2021/12/24 05:49:31;;;;;;;42.88;20.65;;;10.20;99.90;;;;;;5013326;28;20052;-82
2021/12/24 05:51:57;;;;;;;48.88;20.60;;;10.10;99.90;;;;;;5012627;28;20053;-82
2021/12/24 05:54:23;;;;;;;38.83;18.95;;;10.10;99.90;;;;;;4993034;28;20052;-82
2021/12/24 05:56:48;;;;;;;49.90;20.20;;;10.20;99.90;;;;;;4996652;28;20204;-82
2021/12/24 05:59:17;;;;;;;43.42;18.48;;;10.10;99.90;;;;;;4998559;28;20213;-82
2021/12/24 06:01:43;;;;;;;39.33;17.95;;;10.10;99.90;;;;;;5011249;28;20045;-82
2021/12/24 06:04:09;;;;;;;40.33;18.15;;;10.10;99.90;;;;;;5012327;28;20034;-82
2021/12/24 06:06:34;;;;;;;42.15;18.63;;;10.10;99.90;;;;;;4998415;28;20500;-82
2021/12/24 06:09:00;;;;;;;37.10;16.45;;;10.10;99.90;;;;;;5009512;28;20104;-82
2021/12/24 06:11:26;;;;;;;36.13;17.25;;;10.00;99.90;;;;;;4998440;28;20042;-82
2021/12/24 06:13:55;;;;;;;31.10;15.95;;;10.10;99.90;;;;;;4996898;28;20442;-82
2021/12/24 06:16:21;;;;;;;32.85;14.82;;;10.10;99.90;;;;;;5010795;28;20056;-82
2021/12/24 06:18:47;;;;;;;33.20;13.65;;;10.10;99.90;;;;;;4992859;28;20033;-82
2021/12/24 06:21:14;;;;;;;31.80;15.38;;;10.00;99.90;;;;;;5012210;28;20064;-83
2021/12/24 06:23:43;;;;;;;31.67;14.93;;;10.00;99.90;;;;;;5008920;28;20485;-82
2021/12/24 06:26:09;;;;;;;32.28;12.15;;;10.00;99.90;;;;;;5010847;28;20042;-82
2021/12/24 06:28:35;;;;;;;31.10;12.60;;;10.00;99.90;;;;;;4996373;28;20127;-82
2021/12/24 06:31:03;;;;;;;32.65;13.48;;;10.00;99.90;;;;;;4996516;28;20046;-82
2021/12/24 06:33:29;;;;;;;33.10;12.90;;;9.90;99.90;;;;;;4996289;28;20057;-82
2021/12/24 06:35:56;;;;;;;35.50;13.63;;;10.00;99.90;;;;;;5000998;28;20120;-82
2021/12/24 06:38:22;;;;;;;32.53;13.23;;;9.90;99.90;;;;;;4998044;28;20094;-82
2021/12/24 06:40:48;;;;;;;29.35;13.57;;;9.90;99.90;;;;;;5017202;28;20041;-82
2021/12/24 06:43:17;;;;;;;32.78;13.27;;;9.90;99.90;;;;;;5001643;28;20038;-82
2021/12/24 06:45:43;;;;;;;28.40;14.40;;;9.90;99.90;;;;;;5013429;28;20168;-82
2021/12/24 06:48:09;;;;;;;30.95;12.82;;;9.80;99.90;;;;;;5001625;28;20455;-82
2021/12/24 06:50:35;;;;;;;26.10;12.07;;;9.90;99.90;;;;;;5017579;28;20415;-82
2021/12/24 06:53:00;;;;;;;28.40;13.38;;;9.80;99.90;;;;;;5012739;28;20400;-82
2021/12/24 06:55:26;;;;;;;27.63;10.73;;;9.80;99.90;;;;;;5001398;28;20048;-82
2021/12/24 06:57:52;;;;;;;29.83;13.00;;;9.80;99.90;;;;;;5016304;28;20448;-82
2021/12/24 07:00:20;;;;;;;26.98;12.60;;;9.70;99.90;;;;;;5015979;28;20057;-82
2021/12/24 07:02:47;;;;;;;31.23;11.52;;;9.70;99.90;;;;;;5012507;28;20115;-82
2021/12/24 07:05:14;;;;;;;25.23;10.70;;;9.80;99.90;;;;;;5016784;28;20049;-82
2021/12/24 07:07:40;;;;;;;27.30;11.73;;;9.70;99.90;;;;;;4998191;28;20038;-82
2021/12/24 07:10:06;;;;;;;25.05;11.60;;;9.70;99.90;;;;;;5015249;28;20044;-82
2021/12/24 07:12:32;;;;;;;27.98;11.77;;;9.70;99.90;;;;;;5015147;28;20055;-82
2021/12/24 07:14:58;;;;;;;31.52;12.57;;;9.70;99.90;;;;;;4996115;28;20049;-82
2021/12/24 07:17:25;;;;;;;33.17;12.10;;;9.70;99.90;;;;;;5012229;28;20053;-82
2021/12/24 07:19:50;;;;;;;25.83;12.55;;;9.60;99.90;;;;;;4998865;28;20512;-82
2021/12/24 07:22:18;;;;;;;26.63;11.35;;;9.60;99.90;;;;;;4995720;28;20037;-82
2021/12/24 07:24:44;;;;;;;24.30;9.55;;;9.60;99.90;;;;;;5029301;28;20661;-81
2021/12/24 07:27:10;;;;;;;27.35;10.45;;;9.60;99.90;;;;;;4998481;28;20064;-82
2021/12/24 07:29:36;;;;;;;24.25;10.57;;;9.60;99.90;;;;;;5014459;28;20496;-82
2021/12/24 07:32:06;;;;;;;18.48;9.05;;;9.60;99.90;;;;;;4998017;28;20153;-82
2021/12/24 07:34:32;;;;;;;18.90;9.40;;;9.60;99.90;;;;;;5001863;28;20033;-82
2021/12/24 07:36:58;;;;;;;24.42;8.98;;;9.60;99.90;;;;;;4996923;28;20122;-82
2021/12/24 07:39:24;;;;;;;19.55;8.30;;;9.50;99.90;;;;;;4999161;28;20041;-82
2021/12/24 07:41:49;;;;;;;19.77;9.02;;;9.50;99.90;;;;;;4999417;28;20465;-82
2021/12/24 07:44:17;;;;;;;27.05;10.40;;;9.60;99.90;;;;;;4999141;28;20352;-82
2021/12/24 07:46:49;;;;;;;31.70;10.02;;;9.50;99.90;;;;;;5015738;28;20045;-82
2021/12/24 07:49:40;;;;;;;26.30;10.25;;;9.50;99.90;;;;;;4997300;28;20041;-83
2021/12/24 07:54:35;;;;;;;25.67;9.57;;;9.50;99.90;;;;;;5014685;28;20124;-81
2021/12/24 07:57:01;;;;;;;25.40;9.48;;;9.60;99.90;;;;;;5015552;28;20524;-82
2021/12/24 07:59:29;;;;;;;30.23;10.23;;;9.50;99.90;;;;;;4989751;28;20057;-82
2021/12/24 08:01:56;;;;;;;23.67;9.18;;;9.60;99.90;;;;;;4995454;28;20509;-82
2021/12/24 08:04:22;;;;;;;26.17;9.35;;;9.50;99.90;;;;;;5014061;28;20151;-81
2021/12/24 08:06:48;;;;;;;23.63;7.78;;;9.50;99.90;;;;;;5029891;28;20125;-82
2021/12/24 08:09:14;;;;;;;27.85;9.85;;;9.50;99.90;;;;;;5013830;28;20515;-82
2021/12/24 08:11:40;;;;;;;24.73;8.85;;;9.60;99.90;;;;;;5013977;28;20192;-82
2021/12/24 08:14:06;;;;;;;23.50;8.93;;;9.50;99.90;;;;;;5013653;28;20428;-82
2021/12/24 08:16:35;;;;;;;23.98;8.32;;;9.50;99.90;;;;;;5011562;28;20111;-82
2021/12/24 08:19:02;;;;;;;21.10;8.65;;;9.50;99.90;;;;;;5034226;28;20586;-82
2021/12/24 08:21:28;;;;;;;17.75;7.97;;;9.50;99.90;;;;;;5012264;28;20084;-82
2021/12/24 08:23:54;;;;;;;18.17;6.30;;;9.50;99.90;;;;;;5015375;28;20549;-82
2021/12/24 08:26:29;;;;;;;24.10;7.70;;;9.50;99.90;;;;;;5013709;28;20217;-82
2021/12/24 08:28:55;;;;;;;19.33;7.60;;;9.50;99.90;;;;;;4996781;28;20041;-82
2021/12/24 08:31:20;;;;;;;18.13;7.32;;;9.40;99.90;;;;;;5012913;28;20610;-82
2021/12/24 08:33:46;;;;;;;20.05;7.60;;;9.40;99.90;;;;;;4997308;28;20041;-82
2021/12/24 08:36:12;;;;;;;16.05;7.25;;;9.50;99.90;;;;;;5013922;28;20053;-82
2021/12/24 08:38:39;;;;;;;21.17;7.60;;;9.50;99.90;;;;;;5007055;28;20049;-82
2021/12/24 08:41:08;;;;;;;18.65;7.53;;;9.40;99.90;;;;;;5015357;28;20647;-82
2021/12/24 08:43:34;;;;;;;15.60;7.50;;;9.50;99.90;;;;;;4999257;28;20507;-84
2021/12/24 08:46:00;;;;;;;18.92;7.65;;;9.40;99.90;;;;;;4999148;28;20034;-83
2021/12/24 08:48:26;;;;;;;16.98;6.32;;;9.50;99.90;;;;;;4999133;28;20434;-83
2021/12/24 08:50:51;;;;;;;16.88;7.13;;;9.40;99.90;;;;;;4990874;28;20034;-83
2021/12/24 08:53:17;;;;;;;17.77;7.32;;;9.50;99.90;;;;;;5007461;28;20532;-83
2021/12/24 08:55:43;;;;;;;17.27;7.85;;;9.50;99.90;;;;;;5014530;28;20041;-83
2021/12/24 08:58:09;;;;;;;22.75;7.85;;;9.40;99.90;;;;;;4997311;28;20474;-83
2021/12/24 09:00:36;;;;;;;18.17;7.00;;;9.50;99.90;;;;;;5013703;28;20076;-83
2021/12/24 09:03:03;;;;;;;14.07;6.03;;;9.40;99.90;;;;;;5029041;28;20030;-83
2021/12/24 09:05:30;;;;;;;19.50;6.32;;;9.50;99.90;;;;;;5012062;28;20030;-82
2021/12/24 09:07:56;;;;;;;18.45;6.05;;;9.50;99.90;;;;;;4998334;28;20069;-83
2021/12/24 09:10:22;;;;;;;13.85;6.30;;;9.50;99.90;;;;;;5015630;28;20068;-83
2021/12/24 09:12:48;;;;;;;12.52;6.25;;;9.60;99.90;;;;;;5000217;28;20094;-83
2021/12/24 09:15:15;;;;;;;11.18;5.30;;;9.60;99.90;;;;;;4999998;28;20174;-83
2021/12/24 09:17:45;;;;;;;14.13;6.57;;;9.50;99.90;;;;;;5004437;28;20064;-83
2021/12/24 09:20:25;;;;;;;11.68;5.93;;;9.60;99.90;;;;;;5017149;28;20395;-83
2021/12/24 09:22:51;;;;;;;14.13;6.10;;;9.50;99.90;;;;;;4997237;28;20445;-83
2021/12/24 09:25:18;;;;;;;12.05;5.97;;;9.50;99.90;;;;;;5002836;28;20428;-83
2021/12/24 09:27:43;;;;;;;10.77;5.57;;;9.60;99.90;;;;;;5000161;28;20052;-83
2021/12/24 09:30:10;;;;;;;16.33;6.93;;;9.60;99.90;;;;;;5004244;28;20049;-83
2021/12/24 09:32:36;;;;;;;12.15;6.57;;;9.50;99.90;;;;;;5003890;28;20041;-83
2021/12/24 09:35:03;;;;;;;13.30;6.85;;;9.60;99.90;;;;;;5000728;28;20503;-83
2021/12/24 09:37:29;;;;;;;13.52;6.05;;;9.50;99.90;;;;;;4991389;28;20061;-83
2021/12/24 09:39:55;;;;;;;9.70;6.07;;;9.60;99.90;;;;;;5014828;28;20038;-83
2021/12/24 09:42:23;;;;;;;17.65;6.40;;;9.50;99.90;;;;;;5015429;28;20120;-83
2021/12/24 09:44:48;;;;;;;13.98;6.20;;;9.50;99.90;;;;;;5002842;28;20434;-83
2021/12/24 09:47:14;;;;;;;13.93;6.30;;;9.60;99.90;;;;;;5000453;28;20166;-83
2021/12/24 09:49:40;;;;;;;12.55;5.15;;;9.60;99.90;;;;;;5001821;28;20041;-83
2021/12/24 09:52:06;;;;;;;12.15;5.15;;;9.50;99.90;;;;;;4997704;28;20049;-83
2021/12/24 09:54:32;;;;;;;12.02;6.05;;;9.60;99.90;;;;;;5000722;28;20494;-83
2021/12/24 09:56:58;;;;;;;9.82;5.68;;;9.50;99.90;;;;;;5018126;28;20036;-82
2021/12/24 09:59:25;;;;;;;13.93;5.55;;;9.60;99.90;;;;;;5001856;28;20573;-83
2021/12/24 10:01:56;;;;;;;14.45;5.82;;;9.50;99.90;;;;;;5005734;28;20136;-82
2021/12/24 10:04:29;;;;;;;10.73;5.70;;;9.50;99.90;;;;;;5015904;28;20125;-83
2021/12/24 10:07:05;;;;;;;14.88;5.60;;;9.50;99.90;;;;;;5008877;28;20049;-83
2021/12/24 10:09:34;;;;;;;10.57;4.50;;;9.60;99.90;;;;;;5015176;28;20077;-83
2021/12/24 10:12:14;;;;;;;8.80;4.13;;;9.50;99.90;;;;;;5017326;28;20053;-83
2021/12/24 10:14:49;;;;;;;3.33;2.08;;;9.50;99.90;;;;;;5002755;28;20045;-83
2021/12/24 10:17:21;;;;;;;2.08;1.42;;;8.50;99.90;;;;;;4997090;28;20038;-82
2021/12/24 10:19:51;;;;;;;1.50;1.40;;;8.10;99.90;;;;;;4999675;28;20447;-83
2021/12/24 10:22:19;;;;;;;2.22;1.75;;;7.90;99.90;;;;;;5001520;28;20038;-83
2021/12/24 10:25:07;;;;;;;2.05;1.70;;;7.80;99.90;;;;;;5007913;28;20068;-82
2021/12/24 10:27:34;;;;;;;2.90;2.13;;;7.70;99.90;;;;;;5016441;28;20041;-83
2021/12/24 10:30:14;;;;;;;2.40;2.10;;;7.70;99.90;;;;;;5017066;28;20041;-82
2021/12/24 10:32:40;;;;;;;3.20;2.60;;;7.60;99.90;;;;;;5014585;28;20059;-82
2021/12/24 10:35:32;;;;;;;4.70;2.65;;;7.50;99.90;;;;;;5016695;28;20517;-82
2021/12/24 10:38:31;;;;;;;5.38;3.25;;;7.60;99.90;;;;;;4996579;28;20053;-83
2021/12/24 10:41:06;;;;;;;4.00;3.03;;;7.50;99.90;;;;;;4984498;28;20125;-83
2021/12/24 10:43:34;;;;;;;4.28;3.13;;;7.50;99.90;;;;;;5007967;28;20042;-83
2021/12/24 10:46:10;;;;;;;3.30;2.83;;;7.40;99.90;;;;;;4999197;28;20171;-83
2021/12/24 10:48:38;;;;;;;5.55;3.35;;;7.40;99.90;;;;;;5011505;28;20267;-83
2021/12/24 10:51:07;;;;;;;4.10;3.10;;;7.40;99.90;;;;;;5015414;28;20068;-82
2021/12/24 10:54:02;;;;;;;4.57;3.42;;;7.30;99.90;;;;;;5004287;28;20042;-83
2021/12/24 10:56:28;;;;;;;4.38;3.28;;;7.30;99.90;;;;;;4998302;28;20228;-83
2021/12/24 10:58:54;;;;;;;5.07;4.00;;;7.40;99.90;;;;;;4998238;28;20195;-83
2021/12/24 11:01:20;;;;;;;5.90;4.25;;;7.30;99.90;;;;;;4998395;28;20080;-83
2021/12/24 11:03:49;;;;;;;5.05;3.75;;;7.20;99.90;;;;;;4998558;28;20512;-83
2021/12/24 11:06:21;;;;;;;6.18;3.92;;;7.20;99.90;;;;;;4998631;28;20069;-83
2021/12/24 11:08:54;;;;;;;5.30;4.30;;;7.30;99.90;;;;;;5011197;28;20042;-83
2021/12/24 11:11:20;;;;;;;5.57;4.32;;;7.20;99.90;;;;;;5002391;28;20113;-83
2021/12/24 11:13:47;;;;;;;6.30;4.65;;;7.20;99.90;;;;;;4998530;28;20037;-83
2021/12/24 11:16:22;;;;;;;5.55;4.20;;;7.20;99.90;;;;;;4997598;28;20064;-83
2021/12/24 11:19:02;;;;;;;5.20;4.68;;;7.10;99.90;;;;;;4997390;28;20040;-83
2021/12/24 11:21:30;;;;;;;5.32;4.22;;;7.10;99.90;;;;;;4996411;28;20103;-82
2021/12/24 11:23:56;;;;;;;5.97;4.50;;;7.20;99.90;;;;;;5015477;28;20056;-82
2021/12/24 11:26:28;;;;;;;6.38;5.28;;;7.20;99.90;;;;;;5016303;28;20788;-83
2021/12/24 11:28:55;;;;;;;7.38;5.53;;;7.10;99.90;;;;;;5008934;28;20370;-83
2021/12/24 11:31:32;;;;;;;6.32;4.75;;;7.20;99.90;;;;;;5001439;28;20045;-83
2021/12/24 11:33:58;;;;;;;8.90;5.70;;;7.20;99.90;;;;;;4996174;28;20045;-83
2021/12/24 11:36:27;;;;;;;8.10;5.85;;;7.20;99.90;;;;;;5012215;28;20045;-83
2021/12/24 11:38:55;;;;;;;7.45;5.22;;;7.20;99.90;;;;;;5013015;28;20116;-83
2021/12/24 11:41:28;;;;;;;6.78;5.57;;;7.40;99.90;;;;;;5014046;28;20057;-83
2021/12/24 11:43:55;;;;;;;9.88;5.45;;;7.40;99.90;;;;;;5017204;28;20041;-83
2021/12/24 11:46:26;;;;;;;6.35;5.40;;;7.20;99.90;;;;;;5012207;28;20109;-83
2021/12/24 11:48:54;;;;;;;5.55;4.78;;;7.30;99.90;;;;;;5002144;28;20041;-83
2021/12/24 11:51:26;;;;;;;5.95;4.68;;;7.20;99.90;;;;;;4999306;28;20034;-83
2021/12/24 11:54:05;;;;;;;7.05;4.60;;;7.20;99.90;;;;;;5012446;28;20041;-83
2021/12/24 11:56:46;;;;;;;5.18;4.13;;;7.10;99.90;;;;;;5000343;28;20477;-83
2021/12/24 11:59:12;;;;;;;5.68;4.47;;;6.90;99.90;;;;;;5002446;28;20064;-83
2021/12/24 12:01:41;;;;;;;5.85;4.75;;;7.00;99.90;;;;;;5013943;28;20037;-83
2021/12/24 12:04:23;;;;;;;5.57;4.30;;;7.00;99.90;;;;;;5012698;28;20137;-83
2021/12/24 12:06:52;;;;;;;6.00;4.03;;;7.10;99.90;;;;;;5011374;28;20080;-83
2021/12/24 12:09:18;;;;;;;7.28;4.15;;;6.90;99.90;;;;;;4998547;28;20409;-83
2021/12/24 12:11:48;;;;;;;6.72;4.40;;;6.90;99.90;;;;;;5000373;28;20540;-82
2021/12/24 12:14:14;;;;;;;4.90;3.97;;;7.10;99.90;;;;;;4998646;28;20128;-83
2021/12/24 12:16:42;;;;;;;4.68;3.63;;;6.90;99.90;;;;;;5016648;28;21009;-83
2021/12/24 12:22:30;;;;;;;4.43;3.47;;;6.70;99.90;;;;;;5013899;28;20122;-83
2021/12/24 12:25:32;;;;;;;4.00;3.33;;;6.80;99.90;;;;;;5014056;28;20041;-83
2021/12/24 12:28:05;;;;;;;4.75;3.30;;;6.70;99.90;;;;;;4987150;28;20414;-83
2021/12/24 12:30:47;;;;;;;5.25;3.90;;;6.70;99.90;;;;;;4996991;28;20065;-83
2021/12/24 12:33:14;;;;;;;4.60;3.40;;;6.70;99.90;;;;;;5013566;28;20038;-83
2021/12/24 12:35:50;;;;;;;4.35;3.58;;;6.70;99.90;;;;;;5012288;28;20550;-83
2021/12/24 12:38:35;;;;;;;4.55;3.33;;;6.80;99.90;;;;;;5027021;28;20033;-83
2021/12/24 12:41:35;;;;;;;5.13;3.40;;;6.80;99.90;;;;;;4999020;28;20048;-83
2021/12/24 12:44:07;;;;;;;4.15;3.38;;;6.80;99.90;;;;;;5017738;28;20230;-83
2021/12/24 12:46:35;;;;;;;5.53;3.72;;;6.90;99.90;;;;;;5014721;28;20045;-83
2021/12/24 12:49:05;;;;;;;4.30;3.20;;;6.80;99.90;;;;;;5000615;28;20269;-83
2021/12/24 12:51:55;;;;;;;4.20;3.30;;;6.80;99.90;;;;;;5012842;28;20361;-83
2021/12/24 12:54:30;;;;;;;3.47;3.15;;;6.90;99.90;;;;;;5014679;28;20040;-83
2021/12/24 12:57:15;;;;;;;;;;;6.90;99.90;;;;;;4996761;28;20115;-83
2021/12/24 13:00:02;;;;;;;3.58;2.90;;;7.00;99.90;;;;;;5014155;28;19931;-83
2021/12/24 13:02:56;;;;;;;4.18;3.53;;;7.00;99.90;;;;;;5032334;28;20440;-83
2021/12/24 13:05:30;;;;;;;4.20;3.40;;;7.00;99.90;;;;;;5000276;28;20037;-83
2021/12/24 13:08:08;;;;;;;4.82;3.70;;;7.20;99.90;;;;;;5011688;28;20153;-83
2021/12/24 13:10:34;;;;;;;4.03;3.53;;;7.00;99.90;;;;;;4986502;28;20562;-83
2021/12/24 13:13:08;;;;;;;4.53;2.90;;;7.10;99.90;;;;;;5013270;28;20037;-83
2021/12/24 13:15:45;;;;;;;5.57;3.50;;;7.10;99.90;;;;;;5015067;28;20107;-83
2021/12/24 13:18:34;;;;;;;4.72;3.20;;;7.00;99.90;;;;;;4997476;28;20381;-83
2021/12/24 13:23:33;;;;;;;3.47;3.00;;;7.00;99.90;;;;;;5009088;28;20325;-83
2021/12/24 13:26:17;;;;;;;5.78;3.58;;;7.00;99.90;;;;;;4999318;28;20507;-83
2021/12/24 13:29:00;;;;;;;5.10;3.28;;;7.10;99.90;;;;;;5006796;28;20052;-83
2021/12/24 13:31:28;;;;;;;5.15;3.30;;;7.20;99.90;;;;;;5008305;28;20422;-83
2021/12/24 13:33:54;;;;;;;3.38;3.03;;;7.20;99.90;;;;;;5013912;28;20073;-83
2021/12/24 13:36:25;;;;;;;4.25;2.90;;;7.20;99.90;;;;;;5012447;28;20084;-83
2021/12/24 13:39:11;;;;;;;4.18;3.10;;;7.20;99.90;;;;;;4999085;28;20048;-83
2021/12/24 13:41:36;;;;;;;;;;;7.30;99.90;;;;;;5019130;28;20045;-83
2021/12/24 13:44:06;;;;;;;3.78;3.22;;;7.20;99.90;;;;;;5001920;28;19921;-83
2021/12/24 13:46:37;;;;;;;4.10;3.55;;;7.20;99.90;;;;;;5003505;28;20503;-83
2021/12/24 13:54:33;;;;;;;4.38;3.67;;;7.10;99.90;;;;;;5010195;28;20526;-83
2021/12/24 13:57:01;;;;;;;5.95;3.72;;;7.10;99.90;;;;;;5018234;28;20106;-83
2021/12/24 13:59:28;;;;;;;8.40;3.50;;;7.00;99.90;;;;;;5000422;28;20411;-83
2021/12/24 14:01:55;;;;;;;4.65;3.60;;;6.90;99.90;;;;;;4997143;28;20116;-83
2021/12/24 14:04:24;;;;;;;4.78;3.55;;;6.90;99.90;;;;;;5012008;28;20072;-83
2021/12/24 14:06:57;;;;;;;8.27;4.10;;;6.80;99.90;;;;;;5015168;28;20041;-83
2021/12/24 14:09:31;;;;;;;5.40;3.92;;;6.80;99.90;;;;;;5011546;28;20044;-83
2021/12/24 14:11:58;;;;;;;5.53;4.00;;;6.80;99.90;;;;;;4997550;28;20041;-83
2021/12/24 14:14:31;;;;;;;8.85;4.78;;;6.90;99.90;;;;;;5016021;28;20064;-83
2021/12/24 14:19:47;;;;;;;6.30;4.20;;;6.90;99.90;;;;;;5031748;28;20073;-83
2021/12/24 14:22:15;;;;;;;5.07;3.97;;;6.90;99.90;;;;;;4999734;28;20117;-83
2021/12/24 14:24:52;;;;;;;6.13;4.28;;;6.90;99.90;;;;;;4995551;28;20412;-82
2021/12/24 14:27:20;;;;;;;5.18;4.05;;;6.90;99.90;;;;;;4999308;28;20781;-83
2021/12/24 14:29:55;;;;;;;5.60;3.80;;;6.90;99.90;;;;;;5006088;28;20137;-83
2021/12/24 14:32:36;;;;;;;5.68;4.30;;;6.90;99.90;;;;;;5011110;28;20454;-83
2021/12/24 14:35:28;;;;;;;5.65;4.30;;;6.80;99.90;;;;;;5023259;28;20053;-83
2021/12/24 14:37:59;;;;;;;5.47;4.13;;;6.90;99.90;;;;;;4998882;28;20049;-83
2021/12/24 14:40:28;;;;;;;6.20;4.47;;;6.80;99.90;;;;;;5008386;28;20045;-83